Jay Devall Inc — WCQ3101 — position and weather

sailwx.info

Track history (hours):
 
Tides and Currents Weather Stations Pressure Air Temp Water Temp Dewpoint Dewpoint Depression Visibility Wind Speed Wind Dir Waves Ship Positions

Jay Devall Inc

Owner: JAY DEVALL INC, HACKBERRY, LA. More information available from US FCC via Universal Licensing System and Coast Guard Vessel Documentation Center.

Last reported at 2017-Dec-17 23:00 UTC. Time now 2017-Dec-17 23:21 UTC.
Position N 30°04' W 093°21'.

Length 15 m; draft 6.7 m.

Type: Other ship. MMSI: 366972930.

Date/timePositionNaut miles runAvg speedWind from/ knotsBaromVisibWave heightAir tempDewpointWater temp
2017-Dec-17 23:00N 30°04' W 093°21'0 0.3
2017-Dec-17 22:30N 30°04' W 093°21'0 0.0
2017-Dec-17 22:00N 30°04' W 093°21'0 0.0
2017-Dec-17 21:30N 30°04' W 093°21'0 0.0
2017-Dec-17 21:00N 30°04' W 093°21'0 0.0
2017-Dec-17 20:30N 30°04' W 093°21'0 0.0
2017-Dec-17 20:00N 30°04' W 093°21'0 0.0
2017-Dec-17 19:30N 30°04' W 093°21'0 0.0
2017-Dec-17 19:00N 30°04' W 093°21'0 0.1
2017-Dec-17 18:30N 30°04' W 093°21'2 4.3
2017-Dec-17 18:00N 30°05' W 093°20'3 6.1
2017-Dec-17 17:30N 30°08' W 093°20'3 5.7
2017-Dec-17 17:00N 30°11' W 093°19'3 5.9
2017-Dec-17 16:30N 30°13' W 093°16'1 2.6
2017-Dec-17 16:00N 30°14' W 093°15'0 0.0
2017-Dec-17 15:30N 30°14' W 093°15'0 0.0
2017-Dec-17 15:00N 30°14' W 093°15'0 0.0
2017-Dec-17 14:30N 30°14' W 093°15'0 0.0
2017-Dec-17 14:00N 30°14' W 093°15'0 0.0
2017-Dec-17 13:30N 30°14' W 093°15'0 0.0
2017-Dec-17 13:00N 30°14' W 093°15'0 0.0
2017-Dec-17 12:30N 30°14' W 093°15'0 0.0
2017-Dec-17 12:00N 30°14' W 093°15'0 0.0
2017-Dec-17 11:30N 30°14' W 093°15'0 0.0
2017-Dec-17 11:00N 30°14' W 093°15'0 0.0
2017-Dec-17 10:30N 30°14' W 093°15'0 0.0
2017-Dec-17 10:00N 30°14' W 093°15'0 0.0
2017-Dec-17 09:30N 30°14' W 093°15'0 0.0
2017-Dec-17 09:00N 30°14' W 093°15'0 0.0
2017-Dec-17 08:30N 30°14' W 093°15'0 0.0
2017-Dec-17 08:00N 30°14' W 093°15'0 0.0
2017-Dec-17 07:30N 30°14' W 093°15'0 0.0
2017-Dec-17 07:00N 30°14' W 093°15'0 0.0
2017-Dec-17 06:30N 30°14' W 093°15'0 0.0
2017-Dec-17 06:01N 30°14' W 093°15'0 0.0
2017-Dec-17 05:30N 30°14' W 093°15'2 3.2
2017-Dec-17 05:00N 30°12' W 093°16'3 5.7
2017-Dec-17 04:30N 30°11' W 093°19'3 5.4
2017-Dec-17 04:00N 30°08' W 093°20'3 5.9
2017-Dec-17 03:30N 30°05' W 093°20'0 0.9
2017-Dec-17 03:00N 30°05' W 093°20'0 0.0
2017-Dec-17 02:30N 30°05' W 093°20'0 0.0
2017-Dec-17 02:00N 30°05' W 093°20'0 0.0
2017-Dec-17 01:30N 30°05' W 093°20'0 0.0
2017-Dec-17 01:00N 30°05' W 093°20'0 0.0
2017-Dec-17 00:30N 30°05' W 093°20'0 0.0
2017-Dec-17 00:00N 30°05' W 093°20'0 0.0
2017-Dec-16 23:30N 30°05' W 093°20'0 0.0
2017-Dec-16 23:00N 30°05' W 093°20'0 0.0
2017-Dec-16 22:30N 30°05' W 093°20'0 0.0
2017-Dec-16 22:00N 30°05' W 093°20'0 0.0
2017-Dec-16 21:30N 30°05' W 093°20'0 0.0
2017-Dec-16 21:00N 30°05' W 093°20'0 0.0
2017-Dec-16 20:30N 30°05' W 093°20'0 0.0
2017-Dec-16 20:00N 30°05' W 093°20'0 0.0
2017-Dec-16 19:30N 30°05' W 093°20'0 0.0
2017-Dec-16 19:00N 30°05' W 093°20'3 6.1
2017-Dec-16 18:30N 30°08' W 093°20'3 6.3
2017-Dec-16 18:00N 30°11' W 093°19'3 6.6
2017-Dec-16 17:30N 30°13' W 093°16'1 2.0
2017-Dec-16 16:56N 30°14' W 093°15'1 1.4
2017-Dec-16 16:30N 30°13' W 093°16'3 5.4
2017-Dec-16 16:00N 30°11' W 093°18'3 5.4
2017-Dec-16 15:30N 30°09' W 093°20'3 5.6
2017-Dec-16 15:00N 30°07' W 093°20'1 1.7
2017-Dec-16 14:30N 30°06' W 093°20'2 4.9
2017-Dec-16 14:00N 30°08' W 093°20'3 5.2
2017-Dec-16 13:30N 30°06' W 093°20'1 1.8
2017-Dec-16 13:00N 30°05' W 093°20'0 0.0
2017-Dec-16 12:30N 30°05' W 093°20'0 0.0
2017-Dec-16 12:00N 30°05' W 093°20'0 0.0
2017-Dec-16 11:27N 30°05' W 093°20'0 0.0
2017-Dec-16 10:58N 30°05' W 093°20'0 0.0
2017-Dec-16 10:16N 30°05' W 093°20'0 0.0
2017-Dec-16 09:57N 30°05' W 093°20'0 0.0
2017-Dec-16 09:30N 30°05' W 093°20'0 0.0
2017-Dec-16 09:00N 30°05' W 093°20'0 0.0
2017-Dec-16 08:30N 30°05' W 093°20'0 0.0
2017-Dec-16 08:00N 30°05' W 093°20'0 0.0
2017-Dec-16 07:30N 30°05' W 093°20'0 0.0
2017-Dec-16 07:00N 30°05' W 093°20'0 0.0
2017-Dec-16 06:30N 30°05' W 093°20'0 0.0
2017-Dec-16 06:00N 30°05' W 093°20'0 0.0
2017-Dec-16 05:30N 30°05' W 093°20'0 0.0
2017-Dec-16 05:00N 30°05' W 093°20'0 0.0
2017-Dec-16 04:30N 30°05' W 093°20'0 0.0
2017-Dec-16 04:00N 30°05' W 093°20'0 0.0
2017-Dec-16 03:30N 30°05' W 093°20'0 0.0
2017-Dec-16 03:00N 30°05' W 093°20'0 0.0
2017-Dec-16 02:30N 30°05' W 093°20'0 0.0
2017-Dec-16 02:00N 30°05' W 093°20'0 0.0
2017-Dec-16 01:30N 30°05' W 093°20'0 0.0
2017-Dec-16 01:00N 30°05' W 093°20'0 0.0
2017-Dec-16 00:30N 30°05' W 093°20'0 0.0
2017-Dec-16 00:00N 30°05' W 093°20'0 0.0
2017-Dec-15 23:30N 30°05' W 093°20'0 0.0
2017-Dec-15 23:00N 30°05' W 093°20'0 0.0
2017-Dec-15 22:30N 30°05' W 093°20'0 0.3
2017-Dec-15 22:00N 30°05' W 093°20'0 0.4
2017-Dec-15 21:30N 30°05' W 093°20'0 0.2
2017-Dec-15 21:00N 30°05' W 093°20'0 0.0
2017-Dec-15 20:30N 30°05' W 093°20'0 0.0
2017-Dec-15 20:00N 30°05' W 093°20'0 0.0
2017-Dec-15 19:30N 30°05' W 093°20'0 0.0
2017-Dec-15 19:00N 30°05' W 093°20'0 0.0
2017-Dec-15 18:30N 30°05' W 093°20'0 0.0
2017-Dec-15 18:00N 30°05' W 093°20'0 0.0
2017-Dec-15 17:30N 30°05' W 093°20'0 0.0
2017-Dec-15 17:00N 30°05' W 093°20'0 0.0
2017-Dec-15 16:30N 30°05' W 093°20'0 0.0
2017-Dec-15 16:00N 30°05' W 093°20'0 0.0
2017-Dec-15 15:30N 30°05' W 093°20'0 0.0
2017-Dec-15 15:00N 30°05' W 093°20'1 2.3
2017-Dec-15 14:30N 30°06' W 093°20'3 6.5
2017-Dec-15 14:00N 30°09' W 093°20'1 2.5
2017-Dec-15 13:30N 30°10' W 093°19'0 0.0
2017-Dec-15 13:00N 30°10' W 093°19'0 0.0
2017-Dec-15 12:30N 30°10' W 093°19'1 2.9
2017-Dec-15 12:00N 30°09' W 093°20'3 5.6
2017-Dec-15 11:30N 30°06' W 093°20'2 3.0
2017-Dec-15 11:00N 30°05' W 093°20'0 0.0
2017-Dec-15 10:30N 30°05' W 093°20'0 0.0
2017-Dec-15 10:00N 30°05' W 093°20'0 0.0
2017-Dec-15 09:30N 30°05' W 093°20'0 0.0
2017-Dec-15 09:00N 30°05' W 093°20'0 0.0
2017-Dec-15 08:30N 30°05' W 093°20'0 0.0
2017-Dec-15 08:00N 30°05' W 093°20'0 0.0
2017-Dec-15 07:30N 30°05' W 093°20'0 0.0
2017-Dec-15 07:00N 30°05' W 093°20'0 0.0
2017-Dec-15 06:30N 30°05' W 093°20'0 0.0
2017-Dec-15 06:00N 30°05' W 093°20'0 0.0
2017-Dec-15 05:30N 30°05' W 093°20'0 0.0
2017-Dec-15 05:00N 30°05' W 093°20'0 0.0
2017-Dec-15 04:30N 30°05' W 093°20'0 0.0
2017-Dec-15 04:00N 30°05' W 093°20'1 1.0
2017-Dec-15 02:30N 30°04' W 093°21'0 0.0
2017-Dec-15 01:00N 30°04' W 093°21'0 0.0
2017-Dec-15 00:30N 30°04' W 093°21'1 0.1
2017-Dec-14 18:28N 30°04' W 093°22'0 0.0
2017-Dec-14 18:00N 30°04' W 093°22'0 0.0
2017-Dec-14 17:30N 30°04' W 093°22'0 0.4
2017-Dec-14 17:00N 30°04' W 093°22'0 0.8
2017-Dec-14 16:30N 30°04' W 093°21'1 2.9
2017-Dec-14 16:00N 30°05' W 093°20'6 5.4
2017-Dec-14 14:59N 30°10' W 093°19'0 0.1
2017-Dec-14 14:25N 30°10' W 093°19'0 0.9
2017-Dec-14 14:00N 30°10' W 093°19'3 4.9
2017-Dec-14 13:29N 30°07' W 093°20'2 5.0
2017-Dec-14 13:00N 30°05' W 093°20'1 1.4
2017-Dec-14 12:30N 30°04' W 093°20'0 0.3
2017-Dec-14 12:00N 30°04' W 093°20'1 1.9
2017-Dec-14 11:30N 30°04' W 093°21'0 0.0
2017-Dec-14 11:00N 30°04' W 093°21'0 0.0
2017-Dec-14 10:30N 30°04' W 093°21'0 0.0
2017-Dec-14 09:58N 30°04' W 093°21'0 0.0
2017-Dec-14 09:30N 30°04' W 093°21'0 0.0
2017-Dec-14 09:00N 30°04' W 093°21'0 0.0
2017-Dec-14 08:30N 30°04' W 093°21'0 0.0
2017-Dec-14 08:00N 30°04' W 093°21'0 0.0
2017-Dec-14 07:30N 30°04' W 093°21'0 0.0
2017-Dec-14 06:59N 30°04' W 093°21'0 0.0
2017-Dec-14 06:30N 30°04' W 093°21'0 0.0
2017-Dec-14 06:00N 30°04' W 093°21'0 0.3
2017-Dec-14 05:31N 30°04' W 093°21'0 0.0
2017-Dec-14 05:01N 30°04' W 093°21'0 0.1
2017-Dec-14 04:31N 30°04' W 093°21'2 4.4
2017-Dec-14 04:01N 30°05' W 093°20'3 5.7
2017-Dec-14 03:31N 30°08' W 093°20'3 5.6
2017-Dec-14 03:00N 30°11' W 093°19'3 5.9
2017-Dec-14 02:31N 30°12' W 093°16'2 3.2
2017-Dec-14 02:01N 30°14' W 093°15'0 0.0
2017-Dec-14 01:31N 30°14' W 093°15'0 0.0
2017-Dec-14 01:01N 30°14' W 093°15'0 0.0
2017-Dec-14 00:31N 30°14' W 093°15'0 0.0
2017-Dec-14 00:01N 30°14' W 093°15'0 0.0
2017-Dec-13 23:30N 30°14' W 093°15'0 0.0
2017-Dec-13 23:01N 30°14' W 093°15'0 0.0
2017-Dec-13 22:30N 30°14' W 093°15'0 0.0
2017-Dec-13 22:01N 30°14' W 093°15'0 0.0
2017-Dec-13 21:31N 30°14' W 093°15'0 0.0
2017-Dec-13 21:01N 30°14' W 093°15'0 0.0
2017-Dec-13 20:31N 30°14' W 093°15'0 0.0
2017-Dec-13 20:01N 30°14' W 093°15'0 0.0
2017-Dec-13 19:30N 30°14' W 093°15'0 0.0
2017-Dec-13 19:01N 30°14' W 093°15'0 0.0
2017-Dec-13 18:31N 30°14' W 093°15'0 0.0
2017-Dec-13 18:00N 30°14' W 093°15'0 0.0
2017-Dec-13 17:31N 30°14' W 093°15'0 0.0
2017-Dec-13 17:00N 30°14' W 093°15'0 0.0
2017-Dec-13 16:31N 30°14' W 093°15'0 0.0
2017-Dec-13 16:01N 30°14' W 093°15'1 1.6
2017-Dec-13 15:30N 30°13' W 093°16'3 5.6
2017-Dec-13 15:01N 30°11' W 093°18'3 5.6
2017-Dec-13 14:31N 30°09' W 093°20'3 5.7
2017-Dec-13 14:01N 30°06' W 093°20'3 5.7
2017-Dec-13 13:31N 30°04' W 093°21'1 1.4
2017-Dec-13 13:01N 30°04' W 093°21'1 2.1
2017-Dec-13 12:31N 30°05' W 093°20'0 0.0
2017-Dec-13 12:01N 30°05' W 093°20'0 0.0
2017-Dec-13 11:30N 30°05' W 093°20'0 0.0
2017-Dec-13 11:01N 30°05' W 093°20'0 0.0
2017-Dec-13 10:31N 30°05' W 093°20'0 0.0
2017-Dec-13 10:01N 30°05' W 093°20'0 0.0
2017-Dec-13 09:30N 30°05' W 093°20'0 0.0
2017-Dec-13 09:00N 30°05' W 093°20'0 0.0
2017-Dec-13 08:30N 30°05' W 093°20'0 0.0
2017-Dec-13 08:01N 30°05' W 093°20'0 0.4
2017-Dec-13 07:30N 30°05' W 093°20'2 4.2
2017-Dec-13 07:01N 30°04' W 093°22'0 0.0
2017-Dec-13 06:31N 30°04' W 093°22'0 0.0
2017-Dec-13 06:01N 30°04' W 093°22'0 0.0
2017-Dec-13 05:30N 30°04' W 093°22'0 0.0
2017-Dec-13 05:00N 30°04' W 093°22'0 0.0
2017-Dec-13 04:30N 30°04' W 093°22'0 0.0
2017-Dec-13 04:00N 30°04' W 093°22'0 0.0
2017-Dec-13 03:30N 30°04' W 093°22'0 0.0
2017-Dec-13 03:00N 30°04' W 093°22'0 0.0
2017-Dec-13 02:30N 30°04' W 093°22'1 1.9
2017-Dec-13 02:00N 30°04' W 093°21'3 6.4
2017-Dec-13 01:30N 30°07' W 093°20'1 1.7
2017-Dec-13 01:00N 30°06' W 093°20'3 6.0
2017-Dec-13 00:30N 30°04' W 093°21'1 1.0
2017-Dec-13 00:00N 30°04' W 093°22'2 4.4
2017-Dec-12 23:30N 30°05' W 093°20'0 0.0
2017-Dec-12 23:00N 30°05' W 093°20'0 0.0
2017-Dec-12 22:30N 30°05' W 093°20'0 0.0
2017-Dec-12 22:00N 30°05' W 093°20'2 3.8
2017-Dec-12 21:30N 30°06' W 093°18'1 1.9
2017-Dec-12 21:00N 30°06' W 093°19'3 5.4
2017-Dec-12 20:30N 30°04' W 093°21'0 0.0
2017-Dec-12 20:00N 30°04' W 093°21'0 0.0
2017-Dec-12 19:30N 30°04' W 093°21'0 0.0
2017-Dec-12 19:00N 30°04' W 093°21'0 0.0
2017-Dec-12 18:30N 30°04' W 093°21'0 0.0
2017-Dec-12 18:00N 30°04' W 093°21'0 0.0
2017-Dec-12 17:30N 30°04' W 093°21'0 0.1
2017-Dec-12 17:00N 30°04' W 093°21'2 3.3
2017-Dec-12 16:30N 30°05' W 093°20'0 0.6
2017-Dec-12 16:00N 30°05' W 093°20'1 1.3
2017-Dec-12 15:30N 30°05' W 093°20'1 2.5
2017-Dec-12 15:00N 30°04' W 093°21'1 1.8
2017-Dec-12 14:30N 30°04' W 093°21'2 3.9
2017-Dec-12 14:00N 30°06' W 093°20'3 6.4
2017-Dec-12 13:30N 30°09' W 093°20'3 6.2
2017-Dec-12 13:00N 30°12' W 093°18'3 5.5
2017-Dec-12 12:30N 30°14' W 093°15'0 0.8
2017-Dec-12 12:00N 30°14' W 093°15'0 0.0
2017-Dec-12 11:07N 30°14' W 093°15'0 0.0
2017-Dec-12 11:00N 30°14' W 093°15'0 0.0
2017-Dec-12 10:30N 30°14' W 093°15'0 0.0
2017-Dec-12 10:00N 30°14' W 093°15'0 0.0
2017-Dec-12 08:45N 30°14' W 093°15'0 0.0
2017-Dec-11 20:33N 30°14' W 093°15'0 0.0
2017-Dec-11 20:30N 30°14' W 093°15'0 0.0
2017-Dec-11 19:40N 30°14' W 093°15'0 0.0
2017-Dec-11 19:30N 30°14' W 093°15'0 0.0
2017-Dec-11 19:01N 30°14' W 093°15'0 0.0
2017-Dec-11 18:31N 30°14' W 093°15'0 0.0
2017-Dec-11 18:00N 30°14' W 093°15'0 0.0
2017-Dec-11 17:30N 30°14' W 093°15'0 0.0
2017-Dec-11 17:01N 30°14' W 093°15'0 0.0
2017-Dec-11 16:31N 30°14' W 093°15'0 0.0
2017-Dec-11 16:01N 30°14' W 093°15'0 0.0
2017-Dec-11 15:30N 30°14' W 093°15'0 0.0
2017-Dec-11 14:29N 30°14' W 093°15'0 0.0
2017-Dec-11 14:00N 30°14' W 093°15'0 0.0
2017-Dec-11 13:31N 30°14' W 093°15'0 0.0
2017-Dec-11 13:00N 30°14' W 093°15'0 0.0
2017-Dec-11 12:30N 30°14' W 093°15'0 0.0
2017-Dec-11 12:00N 30°14' W 093°15'0 0.1
2017-Dec-11 11:30N 30°14' W 093°15'2 3.6
2017-Dec-11 11:00N 30°12' W 093°16'3 5.9
2017-Dec-11 10:30N 30°11' W 093°19'3 5.3
2017-Dec-11 10:00N 30°08' W 093°20'3 5.5
2017-Dec-11 09:31N 30°05' W 093°20'1 2.4
2017-Dec-11 09:01N 30°04' W 093°21'0 0.1
2017-Dec-11 08:31N 30°04' W 093°21'3 5.3
2017-Dec-11 08:01N 30°07' W 093°20'3 5.3
2017-Dec-11 07:30N 30°09' W 093°20'3 5.0
2017-Dec-11 07:00N 30°11' W 093°18'3 5.5
2017-Dec-11 06:31N 30°13' W 093°15'1 1.0
2017-Dec-11 06:00N 30°14' W 093°15'0 0.0
2017-Dec-11 05:30N 30°14' W 093°15'0 0.0
2017-Dec-11 05:00N 30°14' W 093°15'0 0.0
2017-Dec-11 04:30N 30°14' W 093°15'0 0.0
2017-Dec-11 04:00N 30°14' W 093°15'0 0.0
2017-Dec-11 03:30N 30°14' W 093°15'0 0.0
2017-Dec-11 03:00N 30°14' W 093°15'0 0.0
2017-Dec-11 02:30N 30°14' W 093°15'0 0.0
2017-Dec-11 02:00N 30°14' W 093°15'0 0.0
2017-Dec-11 01:30N 30°14' W 093°15'0 0.0
2017-Dec-11 01:00N 30°14' W 093°15'0 0.0
2017-Dec-11 00:30N 30°14' W 093°15'0 0.0
2017-Dec-11 00:00N 30°14' W 093°15'0 0.0
2017-Dec-10 23:30N 30°14' W 093°15'0 0.0
2017-Dec-10 23:00N 30°14' W 093°15'0 0.0
2017-Dec-10 22:30N 30°14' W 093°15'0 0.0
2017-Dec-10 22:00N 30°14' W 093°15'0 0.0
2017-Dec-10 21:30N 30°14' W 093°15'0 0.0
2017-Dec-10 21:00N 30°14' W 093°15'0 0.0
2017-Dec-10 20:30N 30°14' W 093°15'1 2.8
2017-Dec-10 20:00N 30°13' W 093°16'3 6.2
2017-Dec-10 19:30N 30°11' W 093°19'3 5.7
2017-Dec-10 19:00N 30°08' W 093°20'3 6.0
2017-Dec-10 18:30N 30°05' W 093°20'2 4.6
2017-Dec-10 18:00N 30°04' W 093°22'0 0.0
2017-Dec-10 17:30N 30°04' W 093°22'0 0.0
2017-Dec-10 17:00N 30°04' W 093°22'0 0.1
2017-Dec-10 16:30N 30°04' W 093°22'0 0.0
2017-Dec-10 16:00N 30°04' W 093°22'0 0.0
2017-Dec-10 15:30N 30°04' W 093°22'0 0.0
2017-Dec-10 15:00N 30°04' W 093°22'0 0.0
2017-Dec-10 14:30N 30°04' W 093°22'0 0.0
2017-Dec-10 14:00N 30°04' W 093°22'0 0.0
2017-Dec-10 13:30N 30°04' W 093°22'0 0.0
2017-Dec-10 13:00N 30°04' W 093°22'0 0.0
2017-Dec-10 12:30N 30°04' W 093°22'0 0.0
2017-Dec-10 12:00N 30°04' W 093°22'0 0.0
2017-Dec-10 11:30N 30°04' W 093°22'1 1.4
2017-Dec-10 11:00N 30°04' W 093°21'3 5.3
2017-Dec-10 10:30N 30°06' W 093°20'3 5.6
2017-Dec-10 10:00N 30°09' W 093°20'0 0.0
2017-Dec-10 09:30N 30°09' W 093°20'0 0.0
2017-Dec-10 09:00N 30°09' W 093°20'0 0.0
2017-Dec-10 08:30N 30°09' W 093°20'0 0.0
2017-Dec-10 08:00N 30°09' W 093°20'0 0.0
2017-Dec-10 07:30N 30°09' W 093°20'0 0.0
2017-Dec-10 07:00N 30°09' W 093°20'0 0.0
2017-Dec-10 06:30N 30°09' W 093°20'0 0.0
2017-Dec-10 06:00N 30°09' W 093°20'0 0.0
2017-Dec-10 05:30N 30°09' W 093°20'0 0.0
2017-Dec-10 05:00N 30°09' W 093°20'0 0.0
2017-Dec-10 04:31N 30°09' W 093°20'0 0.0
2017-Dec-10 04:00N 30°09' W 093°20'0 0.0
2017-Dec-10 03:30N 30°09' W 093°20'0 0.0
2017-Dec-10 03:00N 30°09' W 093°20'0 0.0
2017-Dec-10 02:30N 30°09' W 093°20'0 0.0
2017-Dec-10 02:00N 30°09' W 093°20'0 0.0
2017-Dec-10 01:30N 30°09' W 093°20'0 0.0
2017-Dec-10 01:00N 30°09' W 093°20'0 0.3
2017-Dec-10 00:31N 30°09' W 093°20'2 4.9
2017-Dec-10 00:00N 30°06' W 093°20'3 5.2
2017-Dec-09 23:30N 30°04' W 093°21'1 1.2
2017-Dec-09 23:00N 30°04' W 093°21'1 2.5
2017-Dec-09 22:30N 30°05' W 093°20'0 0.0
2017-Dec-09 22:00N 30°05' W 093°20'2 3.4
2017-Dec-09 21:30N 30°04' W 093°22'0 0.0
2017-Dec-09 21:00N 30°04' W 093°22'0 0.0
2017-Dec-09 20:30N 30°04' W 093°22'0 0.0
2017-Dec-09 20:00N 30°04' W 093°22'0 0.6
2017-Dec-09 19:31N 30°04' W 093°22'2 5.0
2017-Dec-09 19:00N 30°05' W 093°20'3 6.2
2017-Dec-09 18:30N 30°08' W 093°20'3 5.8
2017-Dec-09 18:00N 30°11' W 093°18'3 6.1
2017-Dec-09 17:30N 30°13' W 093°16'1 2.1
2017-Dec-09 17:00N 30°14' W 093°15'1 2.0
2017-Dec-09 16:30N 30°13' W 093°16'3 5.8
2017-Dec-09 16:00N 30°11' W 093°18'3 5.8
2017-Dec-09 15:30N 30°09' W 093°20'3 6.0
2017-Dec-09 15:00N 30°06' W 093°20'1 1.6
2017-Dec-09 14:30N 30°05' W 093°20'0 0.0
2017-Dec-09 14:00N 30°05' W 093°20'0 0.0
2017-Dec-09 13:30N 30°05' W 093°20'0 0.0
2017-Dec-09 13:00N 30°05' W 093°20'0 0.0
2017-Dec-09 12:30N 30°05' W 093°20'0 0.0
2017-Dec-09 12:00N 30°05' W 093°20'0 0.0
2017-Dec-09 11:30N 30°05' W 093°20'0 0.0
2017-Dec-09 11:00N 30°05' W 093°20'0 0.0
2017-Dec-09 10:30N 30°05' W 093°20'0 0.0
2017-Dec-09 10:00N 30°05' W 093°20'0 0.0
2017-Dec-09 09:30N 30°05' W 093°20'0 0.0
2017-Dec-09 09:01N 30°05' W 093°20'0 0.0
2017-Dec-09 08:30N 30°05' W 093°20'0 0.0
2017-Dec-09 08:01N 30°05' W 093°20'1 1.9
2017-Dec-09 07:30N 30°06' W 093°20'3 6.0
2017-Dec-09 07:00N 30°09' W 093°20'3 5.5
2017-Dec-09 06:30N 30°11' W 093°18'3 5.3
2017-Dec-09 06:00N 30°13' W 093°17'0 0.3
2017-Dec-09 05:30N 30°14' W 093°17'0 0.9
2017-Dec-09 05:00N 30°13' W 093°17'3 5.7
2017-Dec-09 04:30N 30°11' W 093°19'2 3.6
2017-Dec-09 04:00N 30°09' W 093°20'0 0.0
2017-Dec-09 03:30N 30°09' W 093°20'1 2.0
2017-Dec-09 03:00N 30°08' W 093°20'3 6.5
2017-Dec-09 02:30N 30°05' W 093°20'2 3.8
2017-Dec-09 02:00N 30°04' W 093°21'2 3.9
2017-Dec-09 01:30N 30°05' W 093°20'0 0.5
2017-Dec-09 01:00N 30°05' W 093°20'0 0.0
2017-Dec-09 00:30N 30°05' W 093°20'0 0.0
2017-Dec-09 00:00N 30°05' W 093°20'2 3.3
2017-Dec-08 23:30N 30°06' W 093°20'3 6.2
2017-Dec-08 23:00N 30°10' W 093°19'3 6.3
2017-Dec-08 22:30N 30°12' W 093°17'2 3.1
2017-Dec-08 22:00N 30°13' W 093°17'0 0.6
2017-Dec-08 21:30N 30°13' W 093°17'2 4.3
2017-Dec-08 21:00N 30°11' W 093°18'3 5.3
2017-Dec-08 20:30N 30°09' W 093°20'3 5.4
2017-Dec-08 20:00N 30°07' W 093°20'2 3.2
2017-Dec-08 19:30N 30°05' W 093°20'2 4.9
2017-Dec-08 19:00N 30°07' W 093°20'2 3.8
2017-Dec-08 18:30N 30°09' W 093°20'5 0.8
2017-Dec-08 12:30N 30°13' W 093°17'0 0.1
2017-Dec-08 10:38N 30°13' W 093°17'0 0.0
2017-Dec-08 10:30N 30°14' W 093°17'0 0.0
2017-Dec-08 10:00N 30°13' W 093°17'0 0.0
2017-Dec-08 09:30N 30°14' W 093°17'1 1.6
2017-Dec-08 09:00N 30°13' W 093°17'1 1.6
2017-Dec-08 08:30N 30°14' W 093°17'0 0.0
2017-Dec-08 08:00N 30°13' W 093°17'2 3.0
2017-Dec-08 07:30N 30°12' W 093°17'3 5.8
2017-Dec-08 07:00N 30°10' W 093°19'3 5.6
2017-Dec-08 06:30N 30°07' W 093°20'2 3.8
2017-Dec-08 06:00N 30°05' W 093°20'4 7.0
2017-Dec-08 05:30N 30°09' W 093°20'3 6.9
2017-Dec-08 05:00N 30°12' W 093°18'2 4.0
2017-Dec-08 04:30N 30°13' W 093°17'0 0.1
2017-Dec-08 04:00N 30°13' W 093°17'0 0.1
2017-Dec-08 03:30N 30°13' W 093°17'3 5.5
2017-Dec-08 03:00N 30°11' W 093°18'1 1.8
2017-Dec-08 02:30N 30°11' W 093°19'2 4.4
2017-Dec-08 02:00N 30°08' W 093°20'2 3.7
2017-Dec-08 01:30N 30°07' W 093°20'2 3.4
2017-Dec-08 01:00N 30°05' W 093°20'0 0.0
2017-Dec-08 00:30N 30°05' W 093°20'2 3.5
2017-Dec-08 00:00N 30°07' W 093°20'4 7.2
2017-Dec-07 23:30N 30°10' W 093°19'4 7.2
2017-Dec-07 23:00N 30°12' W 093°16'  
Track history (hours):
 
Tides and Currents Weather Stations Pressure Air Temp Water Temp Dewpoint Dewpoint Depression Visibility Wind Speed Wind Dir Waves Ship Positions

Jay Devall Inc

Owner: JAY DEVALL INC, HACKBERRY, LA. More information available from US FCC via Universal Licensing System and Coast Guard Vessel Documentation Center.

Last reported at 2017-Dec-17 23:00 UTC. Time now 2017-Dec-17 23:21 UTC.
Position N 30°04' W 093°21'.

Length 15 m; draft 6.7 m.

Type: Other ship. MMSI: 366972930.

Date/timePositionNaut miles runAvg speedWind from/ knotsBaromVisibWave heightAir tempDewpointWater temp
2017-Dec-17 23:00N 30°04' W 093°21'0 0.3
2017-Dec-17 22:30N 30°04' W 093°21'0 0.0
2017-Dec-17 22:00N 30°04' W 093°21'0 0.0
2017-Dec-17 21:30N 30°04' W 093°21'0 0.0
2017-Dec-17 21:00N 30°04' W 093°21'0 0.0
2017-Dec-17 20:30N 30°04' W 093°21'0 0.0
2017-Dec-17 20:00N 30°04' W 093°21'0 0.0
2017-Dec-17 19:30N 30°04' W 093°21'0 0.0
2017-Dec-17 19:00N 30°04' W 093°21'0 0.1
2017-Dec-17 18:30N 30°04' W 093°21'2 4.3
2017-Dec-17 18:00N 30°05' W 093°20'3 6.1
2017-Dec-17 17:30N 30°08' W 093°20'3 5.7
2017-Dec-17 17:00N 30°11' W 093°19'3 5.9
2017-Dec-17 16:30N 30°13' W 093°16'1 2.6
2017-Dec-17 16:00N 30°14' W 093°15'0 0.0
2017-Dec-17 15:30N 30°14' W 093°15'0 0.0
2017-Dec-17 15:00N 30°14' W 093°15'0 0.0
2017-Dec-17 14:30N 30°14' W 093°15'0 0.0
2017-Dec-17 14:00N 30°14' W 093°15'0 0.0
2017-Dec-17 13:30N 30°14' W 093°15'0 0.0
2017-Dec-17 13:00N 30°14' W 093°15'0 0.0
2017-Dec-17 12:30N 30°14' W 093°15'0 0.0
2017-Dec-17 12:00N 30°14' W 093°15'0 0.0
2017-Dec-17 11:30N 30°14' W 093°15'0 0.0
2017-Dec-17 11:00N 30°14' W 093°15'0 0.0
2017-Dec-17 10:30N 30°14' W 093°15'0 0.0
2017-Dec-17 10:00N 30°14' W 093°15'0 0.0
2017-Dec-17 09:30N 30°14' W 093°15'0 0.0
2017-Dec-17 09:00N 30°14' W 093°15'0 0.0
2017-Dec-17 08:30N 30°14' W 093°15'0 0.0
2017-Dec-17 08:00N 30°14' W 093°15'0 0.0
2017-Dec-17 07:30N 30°14' W 093°15'0 0.0
2017-Dec-17 07:00N 30°14' W 093°15'0 0.0
2017-Dec-17 06:30N 30°14' W 093°15'0 0.0
2017-Dec-17 06:01N 30°14' W 093°15'0 0.0
2017-Dec-17 05:30N 30°14' W 093°15'2 3.2
2017-Dec-17 05:00N 30°12' W 093°16'3 5.7
2017-Dec-17 04:30N 30°11' W 093°19'3 5.4
2017-Dec-17 04:00N 30°08' W 093°20'3 5.9
2017-Dec-17 03:30N 30°05' W 093°20'0 0.9
2017-Dec-17 03:00N 30°05' W 093°20'0 0.0
2017-Dec-17 02:30N 30°05' W 093°20'0 0.0
2017-Dec-17 02:00N 30°05' W 093°20'0 0.0
2017-Dec-17 01:30N 30°05' W 093°20'0 0.0
2017-Dec-17 01:00N 30°05' W 093°20'0 0.0
2017-Dec-17 00:30N 30°05' W 093°20'0 0.0
2017-Dec-17 00:00N 30°05' W 093°20'0 0.0
2017-Dec-16 23:30N 30°05' W 093°20'0 0.0
2017-Dec-16 23:00N 30°05' W 093°20'0 0.0
2017-Dec-16 22:30N 30°05' W 093°20'0 0.0
2017-Dec-16 22:00N 30°05' W 093°20'0 0.0
2017-Dec-16 21:30N 30°05' W 093°20'0 0.0
2017-Dec-16 21:00N 30°05' W 093°20'0 0.0
2017-Dec-16 20:30N 30°05' W 093°20'0 0.0
2017-Dec-16 20:00N 30°05' W 093°20'0 0.0
2017-Dec-16 19:30N 30°05' W 093°20'0 0.0
2017-Dec-16 19:00N 30°05' W 093°20'3 6.1
2017-Dec-16 18:30N 30°08' W 093°20'3 6.3
2017-Dec-16 18:00N 30°11' W 093°19'3 6.6
2017-Dec-16 17:30N 30°13' W 093°16'1 2.0
2017-Dec-16 16:56N 30°14' W 093°15'1 1.4
2017-Dec-16 16:30N 30°13' W 093°16'3 5.4
2017-Dec-16 16:00N 30°11' W 093°18'3 5.4
2017-Dec-16 15:30N 30°09' W 093°20'3 5.6
2017-Dec-16 15:00N 30°07' W 093°20'1 1.7
2017-Dec-16 14:30N 30°06' W 093°20'2 4.9
2017-Dec-16 14:00N 30°08' W 093°20'3 5.2
2017-Dec-16 13:30N 30°06' W 093°20'1 1.8
2017-Dec-16 13:00N 30°05' W 093°20'0 0.0
2017-Dec-16 12:30N 30°05' W 093°20'0 0.0
2017-Dec-16 12:00N 30°05' W 093°20'0 0.0
2017-Dec-16 11:27N 30°05' W 093°20'0 0.0
2017-Dec-16 10:58N 30°05' W 093°20'0 0.0
2017-Dec-16 10:16N 30°05' W 093°20'0 0.0
2017-Dec-16 09:57N 30°05' W 093°20'0 0.0
2017-Dec-16 09:30N 30°05' W 093°20'0 0.0
2017-Dec-16 09:00N 30°05' W 093°20'0 0.0
2017-Dec-16 08:30N 30°05' W 093°20'0 0.0
2017-Dec-16 08:00N 30°05' W 093°20'0 0.0
2017-Dec-16 07:30N 30°05' W 093°20'0 0.0
2017-Dec-16 07:00N 30°05' W 093°20'0 0.0
2017-Dec-16 06:30N 30°05' W 093°20'0 0.0
2017-Dec-16 06:00N 30°05' W 093°20'0 0.0
2017-Dec-16 05:30N 30°05' W 093°20'0 0.0
2017-Dec-16 05:00N 30°05' W 093°20'0 0.0
2017-Dec-16 04:30N 30°05' W 093°20'0 0.0
2017-Dec-16 04:00N 30°05' W 093°20'0 0.0
2017-Dec-16 03:30N 30°05' W 093°20'0 0.0
2017-Dec-16 03:00N 30°05' W 093°20'0 0.0
2017-Dec-16 02:30N 30°05' W 093°20'0 0.0
2017-Dec-16 02:00N 30°05' W 093°20'0 0.0
2017-Dec-16 01:30N 30°05' W 093°20'0 0.0
2017-Dec-16 01:00N 30°05' W 093°20'0 0.0
2017-Dec-16 00:30N 30°05' W 093°20'0 0.0
2017-Dec-16 00:00N 30°05' W 093°20'0 0.0
2017-Dec-15 23:30N 30°05' W 093°20'0 0.0
2017-Dec-15 23:00N 30°05' W 093°20'0 0.0
2017-Dec-15 22:30N 30°05' W 093°20'0 0.3
2017-Dec-15 22:00N 30°05' W 093°20'0 0.4
2017-Dec-15 21:30N 30°05' W 093°20'0 0.2
2017-Dec-15 21:00N 30°05' W 093°20'0 0.0
2017-Dec-15 20:30N 30°05' W 093°20'0 0.0
2017-Dec-15 20:00N 30°05' W 093°20'0 0.0
2017-Dec-15 19:30N 30°05' W 093°20'0 0.0
2017-Dec-15 19:00N 30°05' W 093°20'0 0.0
2017-Dec-15 18:30N 30°05' W 093°20'0 0.0
2017-Dec-15 18:00N 30°05' W 093°20'0 0.0
2017-Dec-15 17:30N 30°05' W 093°20'0 0.0
2017-Dec-15 17:00N 30°05' W 093°20'0 0.0
2017-Dec-15 16:30N 30°05' W 093°20'0 0.0
2017-Dec-15 16:00N 30°05' W 093°20'0 0.0
2017-Dec-15 15:30N 30°05' W 093°20'0 0.0
2017-Dec-15 15:00N 30°05' W 093°20'1 2.3
2017-Dec-15 14:30N 30°06' W 093°20'3 6.5
2017-Dec-15 14:00N 30°09' W 093°20'1 2.5
2017-Dec-15 13:30N 30°10' W 093°19'0 0.0
2017-Dec-15 13:00N 30°10' W 093°19'0 0.0
2017-Dec-15 12:30N 30°10' W 093°19'1 2.9
2017-Dec-15 12:00N 30°09' W 093°20'3 5.6
2017-Dec-15 11:30N 30°06' W 093°20'2 3.0
2017-Dec-15 11:00N 30°05' W 093°20'0 0.0
2017-Dec-15 10:30N 30°05' W 093°20'0 0.0
2017-Dec-15 10:00N 30°05' W 093°20'0 0.0
2017-Dec-15 09:30N 30°05' W 093°20'0 0.0
2017-Dec-15 09:00N 30°05' W 093°20'0 0.0
2017-Dec-15 08:30N 30°05' W 093°20'0 0.0
2017-Dec-15 08:00N 30°05' W 093°20'0 0.0
2017-Dec-15 07:30N 30°05' W 093°20'0 0.0
2017-Dec-15 07:00N 30°05' W 093°20'0 0.0
2017-Dec-15 06:30N 30°05' W 093°20'0 0.0
2017-Dec-15 06:00N 30°05' W 093°20'0 0.0
2017-Dec-15 05:30N 30°05' W 093°20'0 0.0
2017-Dec-15 05:00N 30°05' W 093°20'0 0.0
2017-Dec-15 04:30N 30°05' W 093°20'0 0.0
2017-Dec-15 04:00N 30°05' W 093°20'1 1.0
2017-Dec-15 02:30N 30°04' W 093°21'0 0.0
2017-Dec-15 01:00N 30°04' W 093°21'0 0.0
2017-Dec-15 00:30N 30°04' W 093°21'1 0.1
2017-Dec-14 18:28N 30°04' W 093°22'0 0.0
2017-Dec-14 18:00N 30°04' W 093°22'0 0.0
2017-Dec-14 17:30N 30°04' W 093°22'0 0.4
2017-Dec-14 17:00N 30°04' W 093°22'0 0.8
2017-Dec-14 16:30N 30°04' W 093°21'1 2.9
2017-Dec-14 16:00N 30°05' W 093°20'6 5.4
2017-Dec-14 14:59N 30°10' W 093°19'0 0.1
2017-Dec-14 14:25N 30°10' W 093°19'0 0.9
2017-Dec-14 14:00N 30°10' W 093°19'3 4.9
2017-Dec-14 13:29N 30°07' W 093°20'2 5.0
2017-Dec-14 13:00N 30°05' W 093°20'1 1.4
2017-Dec-14 12:30N 30°04' W 093°20'0 0.3
2017-Dec-14 12:00N 30°04' W 093°20'1 1.9
2017-Dec-14 11:30N 30°04' W 093°21'0 0.0
2017-Dec-14 11:00N 30°04' W 093°21'0 0.0
2017-Dec-14 10:30N 30°04' W 093°21'0 0.0
2017-Dec-14 09:58N 30°04' W 093°21'0 0.0
2017-Dec-14 09:30N 30°04' W 093°21'0 0.0
2017-Dec-14 09:00N 30°04' W 093°21'0 0.0
2017-Dec-14 08:30N 30°04' W 093°21'0 0.0
2017-Dec-14 08:00N 30°04' W 093°21'0 0.0
2017-Dec-14 07:30N 30°04' W 093°21'0 0.0
2017-Dec-14 06:59N 30°04' W 093°21'0 0.0
2017-Dec-14 06:30N 30°04' W 093°21'0 0.0
2017-Dec-14 06:00N 30°04' W 093°21'0 0.3
2017-Dec-14 05:31N 30°04' W 093°21'0 0.0
2017-Dec-14 05:01N 30°04' W 093°21'0 0.1
2017-Dec-14 04:31N 30°04' W 093°21'2 4.4
2017-Dec-14 04:01N 30°05' W 093°20'3 5.7
2017-Dec-14 03:31N 30°08' W 093°20'3 5.6
2017-Dec-14 03:00N 30°11' W 093°19'3 5.9
2017-Dec-14 02:31N 30°12' W 093°16'2 3.2
2017-Dec-14 02:01N 30°14' W 093°15'0 0.0
2017-Dec-14 01:31N 30°14' W 093°15'0 0.0
2017-Dec-14 01:01N 30°14' W 093°15'0 0.0
2017-Dec-14 00:31N 30°14' W 093°15'0 0.0
2017-Dec-14 00:01N 30°14' W 093°15'0 0.0
2017-Dec-13 23:30N 30°14' W 093°15'0 0.0
2017-Dec-13 23:01N 30°14' W 093°15'0 0.0
2017-Dec-13 22:30N 30°14' W 093°15'0 0.0
2017-Dec-13 22:01N 30°14' W 093°15'0 0.0
2017-Dec-13 21:31N 30°14' W 093°15'0 0.0
2017-Dec-13 21:01N 30°14' W 093°15'0 0.0
2017-Dec-13 20:31N 30°14' W 093°15'0 0.0
2017-Dec-13 20:01N 30°14' W 093°15'0 0.0
2017-Dec-13 19:30N 30°14' W 093°15'0 0.0
2017-Dec-13 19:01N 30°14' W 093°15'0 0.0
2017-Dec-13 18:31N 30°14' W 093°15'0 0.0
2017-Dec-13 18:00N 30°14' W 093°15'0 0.0
2017-Dec-13 17:31N 30°14' W 093°15'0 0.0
2017-Dec-13 17:00N 30°14' W 093°15'0 0.0
2017-Dec-13 16:31N 30°14' W 093°15'0 0.0
2017-Dec-13 16:01N 30°14' W 093°15'1 1.6
2017-Dec-13 15:30N 30°13' W 093°16'3 5.6
2017-Dec-13 15:01N 30°11' W 093°18'3 5.6
2017-Dec-13 14:31N 30°09' W 093°20'3 5.7
2017-Dec-13 14:01N 30°06' W 093°20'3 5.7
2017-Dec-13 13:31N 30°04' W 093°21'1 1.4
2017-Dec-13 13:01N 30°04' W 093°21'1 2.1
2017-Dec-13 12:31N 30°05' W 093°20'0 0.0
2017-Dec-13 12:01N 30°05' W 093°20'0 0.0
2017-Dec-13 11:30N 30°05' W 093°20'0 0.0
2017-Dec-13 11:01N 30°05' W 093°20'0 0.0
2017-Dec-13 10:31N 30°05' W 093°20'0 0.0
2017-Dec-13 10:01N 30°05' W 093°20'0 0.0
2017-Dec-13 09:30N 30°05' W 093°20'0 0.0
2017-Dec-13 09:00N 30°05' W 093°20'0 0.0
2017-Dec-13 08:30N 30°05' W 093°20'0 0.0
2017-Dec-13 08:01N 30°05' W 093°20'0 0.4
2017-Dec-13 07:30N 30°05' W 093°20'2 4.2
2017-Dec-13 07:01N 30°04' W 093°22'0 0.0
2017-Dec-13 06:31N 30°04' W 093°22'0 0.0
2017-Dec-13 06:01N 30°04' W 093°22'0 0.0
2017-Dec-13 05:30N 30°04' W 093°22'0 0.0
2017-Dec-13 05:00N 30°04' W 093°22'0 0.0
2017-Dec-13 04:30N 30°04' W 093°22'0 0.0
2017-Dec-13 04:00N 30°04' W 093°22'0 0.0
2017-Dec-13 03:30N 30°04' W 093°22'0 0.0
2017-Dec-13 03:00N 30°04' W 093°22'0 0.0
2017-Dec-13 02:30N 30°04' W 093°22'1 1.9
2017-Dec-13 02:00N 30°04' W 093°21'3 6.4
2017-Dec-13 01:30N 30°07' W 093°20'1 1.7
2017-Dec-13 01:00N 30°06' W 093°20'3 6.0
2017-Dec-13 00:30N 30°04' W 093°21'1 1.0
2017-Dec-13 00:00N 30°04' W 093°22'2 4.4
2017-Dec-12 23:30N 30°05' W 093°20'0 0.0
2017-Dec-12 23:00N 30°05' W 093°20'0 0.0
2017-Dec-12 22:30N 30°05' W 093°20'0 0.0
2017-Dec-12 22:00N 30°05' W 093°20'2 3.8
2017-Dec-12 21:30N 30°06' W 093°18'1 1.9
2017-Dec-12 21:00N 30°06' W 093°19'3 5.4
2017-Dec-12 20:30N 30°04' W 093°21'0 0.0
2017-Dec-12 20:00N 30°04' W 093°21'0 0.0
2017-Dec-12 19:30N 30°04' W 093°21'0 0.0
2017-Dec-12 19:00N 30°04' W 093°21'0 0.0
2017-Dec-12 18:30N 30°04' W 093°21'0 0.0
2017-Dec-12 18:00N 30°04' W 093°21'0 0.0
2017-Dec-12 17:30N 30°04' W 093°21'0 0.1
2017-Dec-12 17:00N 30°04' W 093°21'2 3.3
2017-Dec-12 16:30N 30°05' W 093°20'0 0.6
2017-Dec-12 16:00N 30°05' W 093°20'1 1.3
2017-Dec-12 15:30N 30°05' W 093°20'1 2.5
2017-Dec-12 15:00N 30°04' W 093°21'1 1.8
2017-Dec-12 14:30N 30°04' W 093°21'2 3.9
2017-Dec-12 14:00N 30°06' W 093°20'3 6.4
2017-Dec-12 13:30N 30°09' W 093°20'3 6.2
2017-Dec-12 13:00N 30°12' W 093°18'3 5.5
2017-Dec-12 12:30N 30°14' W 093°15'0 0.8
2017-Dec-12 12:00N 30°14' W 093°15'0 0.0
2017-Dec-12 11:07N 30°14' W 093°15'0 0.0
2017-Dec-12 11:00N 30°14' W 093°15'0 0.0
2017-Dec-12 10:30N 30°14' W 093°15'0 0.0
2017-Dec-12 10:00N 30°14' W 093°15'0 0.0
2017-Dec-12 08:45N 30°14' W 093°15'0 0.0
2017-Dec-11 20:33N 30°14' W 093°15'0 0.0
2017-Dec-11 20:30N 30°14' W 093°15'0 0.0
2017-Dec-11 19:40N 30°14' W 093°15'0 0.0
2017-Dec-11 19:30N 30°14' W 093°15'0 0.0
2017-Dec-11 19:01N 30°14' W 093°15'0 0.0
2017-Dec-11 18:31N 30°14' W 093°15'0 0.0
2017-Dec-11 18:00N 30°14' W 093°15'0 0.0
2017-Dec-11 17:30N 30°14' W 093°15'0 0.0
2017-Dec-11 17:01N 30°14' W 093°15'0 0.0
2017-Dec-11 16:31N 30°14' W 093°15'0 0.0
2017-Dec-11 16:01N 30°14' W 093°15'0 0.0
2017-Dec-11 15:30N 30°14' W 093°15'0 0.0
2017-Dec-11 14:29N 30°14' W 093°15'0 0.0
2017-Dec-11 14:00N 30°14' W 093°15'0 0.0
2017-Dec-11 13:31N 30°14' W 093°15'0 0.0
2017-Dec-11 13:00N 30°14' W 093°15'0 0.0
2017-Dec-11 12:30N 30°14' W 093°15'0 0.0
2017-Dec-11 12:00N 30°14' W 093°15'0 0.1
2017-Dec-11 11:30N 30°14' W 093°15'2 3.6
2017-Dec-11 11:00N 30°12' W 093°16'3 5.9
2017-Dec-11 10:30N 30°11' W 093°19'3 5.3
2017-Dec-11 10:00N 30°08' W 093°20'3 5.5
2017-Dec-11 09:31N 30°05' W 093°20'1 2.4
2017-Dec-11 09:01N 30°04' W 093°21'0 0.1
2017-Dec-11 08:31N 30°04' W 093°21'3 5.3
2017-Dec-11 08:01N 30°07' W 093°20'3 5.3
2017-Dec-11 07:30N 30°09' W 093°20'3 5.0
2017-Dec-11 07:00N 30°11' W 093°18'3 5.5
2017-Dec-11 06:31N 30°13' W 093°15'1 1.0
2017-Dec-11 06:00N 30°14' W 093°15'0 0.0
2017-Dec-11 05:30N 30°14' W 093°15'0 0.0
2017-Dec-11 05:00N 30°14' W 093°15'0 0.0
2017-Dec-11 04:30N 30°14' W 093°15'0 0.0
2017-Dec-11 04:00N 30°14' W 093°15'0 0.0
2017-Dec-11 03:30N 30°14' W 093°15'0 0.0
2017-Dec-11 03:00N 30°14' W 093°15'0 0.0
2017-Dec-11 02:30N 30°14' W 093°15'0 0.0
2017-Dec-11 02:00N 30°14' W 093°15'0 0.0
2017-Dec-11 01:30N 30°14' W 093°15'0 0.0
2017-Dec-11 01:00N 30°14' W 093°15'0 0.0
2017-Dec-11 00:30N 30°14' W 093°15'0 0.0
2017-Dec-11 00:00N 30°14' W 093°15'0 0.0
2017-Dec-10 23:30N 30°14' W 093°15'0 0.0
2017-Dec-10 23:00N 30°14' W 093°15'0 0.0
2017-Dec-10 22:30N 30°14' W 093°15'0 0.0
2017-Dec-10 22:00N 30°14' W 093°15'0 0.0
2017-Dec-10 21:30N 30°14' W 093°15'0 0.0
2017-Dec-10 21:00N 30°14' W 093°15'0 0.0
2017-Dec-10 20:30N 30°14' W 093°15'1 2.8
2017-Dec-10 20:00N 30°13' W 093°16'3 6.2
2017-Dec-10 19:30N 30°11' W 093°19'3 5.7
2017-Dec-10 19:00N 30°08' W 093°20'3 6.0
2017-Dec-10 18:30N 30°05' W 093°20'2 4.6
2017-Dec-10 18:00N 30°04' W 093°22'0 0.0
2017-Dec-10 17:30N 30°04' W 093°22'0 0.0
2017-Dec-10 17:00N 30°04' W 093°22'0 0.1
2017-Dec-10 16:30N 30°04' W 093°22'0 0.0
2017-Dec-10 16:00N 30°04' W 093°22'0 0.0
2017-Dec-10 15:30N 30°04' W 093°22'0 0.0
2017-Dec-10 15:00N 30°04' W 093°22'0 0.0
2017-Dec-10 14:30N 30°04' W 093°22'0 0.0
2017-Dec-10 14:00N 30°04' W 093°22'0 0.0
2017-Dec-10 13:30N 30°04' W 093°22'0 0.0
2017-Dec-10 13:00N 30°04' W 093°22'0 0.0
2017-Dec-10 12:30N 30°04' W 093°22'0 0.0
2017-Dec-10 12:00N 30°04' W 093°22'0 0.0
2017-Dec-10 11:30N 30°04' W 093°22'1 1.4
2017-Dec-10 11:00N 30°04' W 093°21'3 5.3
2017-Dec-10 10:30N 30°06' W 093°20'3 5.6
2017-Dec-10 10:00N 30°09' W 093°20'0 0.0
2017-Dec-10 09:30N 30°09' W 093°20'0 0.0
2017-Dec-10 09:00N 30°09' W 093°20'0 0.0
2017-Dec-10 08:30N 30°09' W 093°20'0 0.0
2017-Dec-10 08:00N 30°09' W 093°20'0 0.0
2017-Dec-10 07:30N 30°09' W 093°20'0 0.0
2017-Dec-10 07:00N 30°09' W 093°20'0 0.0
2017-Dec-10 06:30N 30°09' W 093°20'0 0.0
2017-Dec-10 06:00N 30°09' W 093°20'0 0.0
2017-Dec-10 05:30N 30°09' W 093°20'0 0.0
2017-Dec-10 05:00N 30°09' W 093°20'0 0.0
2017-Dec-10 04:31N 30°09' W 093°20'0 0.0
2017-Dec-10 04:00N 30°09' W 093°20'0 0.0
2017-Dec-10 03:30N 30°09' W 093°20'0 0.0
2017-Dec-10 03:00N 30°09' W 093°20'0 0.0
2017-Dec-10 02:30N 30°09' W 093°20'0 0.0
2017-Dec-10 02:00N 30°09' W 093°20'0 0.0
2017-Dec-10 01:30N 30°09' W 093°20'0 0.0
2017-Dec-10 01:00N 30°09' W 093°20'0 0.3
2017-Dec-10 00:31N 30°09' W 093°20'2 4.9
2017-Dec-10 00:00N 30°06' W 093°20'3 5.2
2017-Dec-09 23:30N 30°04' W 093°21'1 1.2
2017-Dec-09 23:00N 30°04' W 093°21'1 2.5
2017-Dec-09 22:30N 30°05' W 093°20'0 0.0
2017-Dec-09 22:00N 30°05' W 093°20'2 3.4
2017-Dec-09 21:30N 30°04' W 093°22'0 0.0
2017-Dec-09 21:00N 30°04' W 093°22'0 0.0
2017-Dec-09 20:30N 30°04' W 093°22'0 0.0
2017-Dec-09 20:00N 30°04' W 093°22'0 0.6
2017-Dec-09 19:31N 30°04' W 093°22'2 5.0
2017-Dec-09 19:00N 30°05' W 093°20'3 6.2
2017-Dec-09 18:30N 30°08' W 093°20'3 5.8
2017-Dec-09 18:00N 30°11' W 093°18'3 6.1
2017-Dec-09 17:30N 30°13' W 093°16'1 2.1
2017-Dec-09 17:00N 30°14' W 093°15'1 2.0
2017-Dec-09 16:30N 30°13' W 093°16'3 5.8
2017-Dec-09 16:00N 30°11' W 093°18'3 5.8
2017-Dec-09 15:30N 30°09' W 093°20'3 6.0
2017-Dec-09 15:00N 30°06' W 093°20'1 1.6
2017-Dec-09 14:30N 30°05' W 093°20'0 0.0
2017-Dec-09 14:00N 30°05' W 093°20'0 0.0
2017-Dec-09 13:30N 30°05' W 093°20'0 0.0
2017-Dec-09 13:00N 30°05' W 093°20'0 0.0
2017-Dec-09 12:30N 30°05' W 093°20'0 0.0
2017-Dec-09 12:00N 30°05' W 093°20'0 0.0
2017-Dec-09 11:30N 30°05' W 093°20'0 0.0
2017-Dec-09 11:00N 30°05' W 093°20'0 0.0
2017-Dec-09 10:30N 30°05' W 093°20'0 0.0
2017-Dec-09 10:00N 30°05' W 093°20'0 0.0
2017-Dec-09 09:30N 30°05' W 093°20'0 0.0
2017-Dec-09 09:01N 30°05' W 093°20'0 0.0
2017-Dec-09 08:30N 30°05' W 093°20'0 0.0
2017-Dec-09 08:01N 30°05' W 093°20'1 1.9
2017-Dec-09 07:30N 30°06' W 093°20'3 6.0
2017-Dec-09 07:00N 30°09' W 093°20'3 5.5
2017-Dec-09 06:30N 30°11' W 093°18'3 5.3
2017-Dec-09 06:00N 30°13' W 093°17'0 0.3
2017-Dec-09 05:30N 30°14' W 093°17'0 0.9
2017-Dec-09 05:00N 30°13' W 093°17'3 5.7
2017-Dec-09 04:30N 30°11' W 093°19'2 3.6
2017-Dec-09 04:00N 30°09' W 093°20'0 0.0
2017-Dec-09 03:30N 30°09' W 093°20'1 2.0
2017-Dec-09 03:00N 30°08' W 093°20'3 6.5
2017-Dec-09 02:30N 30°05' W 093°20'2 3.8
2017-Dec-09 02:00N 30°04' W 093°21'2 3.9
2017-Dec-09 01:30N 30°05' W 093°20'0 0.5
2017-Dec-09 01:00N 30°05' W 093°20'0 0.0
2017-Dec-09 00:30N 30°05' W 093°20'0 0.0
2017-Dec-09 00:00N 30°05' W 093°20'2 3.3
2017-Dec-08 23:30N 30°06' W 093°20'3 6.2
2017-Dec-08 23:00N 30°10' W 093°19'3 6.3
2017-Dec-08 22:30N 30°12' W 093°17'2 3.1
2017-Dec-08 22:00N 30°13' W 093°17'0 0.6
2017-Dec-08 21:30N 30°13' W 093°17'2 4.3
2017-Dec-08 21:00N 30°11' W 093°18'3 5.3
2017-Dec-08 20:30N 30°09' W 093°20'3 5.4
2017-Dec-08 20:00N 30°07' W 093°20'2 3.2
2017-Dec-08 19:30N 30°05' W 093°20'2 4.9
2017-Dec-08 19:00N 30°07' W 093°20'2 3.8
2017-Dec-08 18:30N 30°09' W 093°20'5 0.8
2017-Dec-08 12:30N 30°13' W 093°17'0 0.1
2017-Dec-08 10:38N 30°13' W 093°17'0 0.0
2017-Dec-08 10:30N 30°14' W 093°17'0 0.0
2017-Dec-08 10:00N 30°13' W 093°17'0 0.0
2017-Dec-08 09:30N 30°14' W 093°17'1 1.6
2017-Dec-08 09:00N 30°13' W 093°17'1 1.6
2017-Dec-08 08:30N 30°14' W 093°17'0 0.0
2017-Dec-08 08:00N 30°13' W 093°17'2 3.0
2017-Dec-08 07:30N 30°12' W 093°17'3 5.8
2017-Dec-08 07:00N 30°10' W 093°19'3 5.6
2017-Dec-08 06:30N 30°07' W 093°20'2 3.8
2017-Dec-08 06:00N 30°05' W 093°20'4 7.0
2017-Dec-08 05:30N 30°09' W 093°20'3 6.9
2017-Dec-08 05:00N 30°12' W 093°18'2 4.0
2017-Dec-08 04:30N 30°13' W 093°17'0 0.1
2017-Dec-08 04:00N 30°13' W 093°17'0 0.1
2017-Dec-08 03:30N 30°13' W 093°17'3 5.5
2017-Dec-08 03:00N 30°11' W 093°18'1 1.8
2017-Dec-08 02:30N 30°11' W 093°19'2 4.4
2017-Dec-08 02:00N 30°08' W 093°20'2 3.7
2017-Dec-08 01:30N 30°07' W 093°20'2 3.4
2017-Dec-08 01:00N 30°05' W 093°20'0 0.0
2017-Dec-08 00:30N 30°05' W 093°20'2 3.5
2017-Dec-08 00:00N 30°07' W 093°20'4 7.2
2017-Dec-07 23:30N 30°10' W 093°19'4 7.2
2017-Dec-07 23:00N 30°12' W 093°16'  

Dump ship's entire track history